Time;durP1;ratioP1;P1;durP2;ratioP2;P2;SDS_P1;SDS_P2;PMS_P1;PMS_P2;Temp;Humidity;BMP_temperature;BMP_pressure;BME280_temperature;BME280_humidity;BME280_pressure;Samples;Min_cycle;Max_cycle;Signal;HPM_P1;HPM_P2
2022/04/28 00:01:06;;;;;;;15.50;11.20;;;;;;;13.71;52.57;99678.09;233082;1217;139773;-61
2022/04/28 00:06:34;;;;;;;20.00;12.00;;;;;;;13.70;52.26;99677.86;233253;1217;139987;-61
2022/04/28 00:11:37;;;;;;;17.60;11.30;;;;;;;13.65;52.40;99677.48;233199;1217;139163;-61
2022/04/28 00:16:40;;;;;;;17.40;11.60;;;;;;;13.64;52.38;99677.17;232748;1217;139500;-63
2022/04/28 00:21:43;;;;;;;19.80;11.30;;;;;;;13.62;52.33;99675.48;233435;1217;139598;-59
2022/04/28 00:26:46;;;;;;;18.60;11.10;;;;;;;13.64;52.38;99676.12;233220;1217;139660;-60
2022/04/28 00:31:49;;;;;;;17.70;10.50;;;;;;;13.64;52.35;99672.21;233302;1217;140538;-63
2022/04/28 00:36:53;;;;;;;20.10;11.00;;;;;;;13.61;52.16;99670.71;233387;1217;140102;-62
2022/04/28 00:41:56;;;;;;;17.60;10.90;;;;;;;13.64;52.17;99674.64;233194;1217;140327;-63
2022/04/28 00:46:59;;;;;;;19.40;11.10;;;;;;;13.64;52.33;99676.80;233125;1217;140163;-64
2022/04/28 00:52:02;;;;;;;16.20;10.70;;;;;;;13.59;52.17;99668.92;233461;1217;140105;-64
2022/04/28 00:57:10;;;;;;;17.70;10.80;;;;;;;13.60;52.12;99669.18;233313;1217;139848;-67
2022/04/28 01:02:17;;;;;;;;;;;;;;;13.61;52.10;99668.61;233221;1217;140033;-61
2022/04/28 01:07:20;;;;;;;17.80;10.60;;;;;;;13.60;52.02;99673.85;233705;1217;125892;-64
2022/04/28 01:12:24;;;;;;;16.20;10.60;;;;;;;13.52;52.21;99677.38;232693;1217;140282;-65
2022/04/28 01:17:30;;;;;;;16.20;9.70;;;;;;;13.48;52.34;99675.86;233197;1217;140262;-65
2022/04/28 01:22:40;;;;;;;16.00;10.10;;;;;;;13.46;52.46;99684.00;233288;1217;139255;-66
2022/04/28 01:27:47;;;;;;;15.90;10.90;;;;;;;13.40;52.37;99676.71;233244;1217;139359;-64
2022/04/28 01:32:54;;;;;;;17.50;10.00;;;;;;;13.38;52.45;99678.24;232729;1217;141790;-65
2022/04/28 01:37:58;;;;;;;15.00;10.00;;;;;;;13.36;52.75;99683.06;232743;1217;140327;-65
2022/04/28 01:43:01;;;;;;;17.80;10.40;;;;;;;13.31;52.65;99678.21;233370;1217;140005;-67
2022/04/28 01:48:05;;;;;;;15.80;9.50;;;;;;;13.29;52.90;99687.80;233384;1217;139847;-64
2022/04/28 01:59:00;;;;;;;17.20;9.30;;;;;;;13.20;52.71;99688.45;233137;1217;139349;-62
2022/04/28 02:04:16;;;;;;;14.80;9.40;;;;;;;13.17;52.69;99690.08;233418;1217;139264;-62
2022/04/28 02:09:19;;;;;;;13.70;8.70;;;;;;;13.16;52.95;99694.95;233472;1217;140644;-62
2022/04/28 02:14:23;;;;;;;15.70;9.00;;;;;;;13.11;52.69;99692.42;233165;1217;138853;-64
2022/04/28 02:19:35;;;;;;;16.10;9.60;;;;;;;13.04;52.84;99690.70;233185;1217;139624;-65
2022/04/28 02:24:39;;;;;;;14.50;8.70;;;;;;;12.97;52.82;99693.29;232341;1217;139593;-64
2022/04/28 02:29:42;;;;;;;16.30;9.80;;;;;;;12.91;53.02;99692.58;233123;1217;139096;-65
2022/04/28 02:34:46;;;;;;;14.50;8.70;;;;;;;12.83;53.08;99689.69;232887;1217;138621;-63
2022/04/28 02:39:49;;;;;;;15.90;9.30;;;;;;;12.78;53.04;99696.91;232259;1217;140236;-65
2022/04/28 02:44:52;;;;;;;15.90;9.40;;;;;;;12.73;52.96;99699.58;233384;1217;139340;-65
2022/04/28 02:49:55;;;;;;;19.50;8.60;;;;;;;12.67;53.06;99701.35;232764;1218;139755;-67
2022/04/28 02:54:59;;;;;;;18.10;9.20;;;;;;;12.60;53.06;99699.66;232784;1217;139332;-68
2022/04/28 03:00:05;;;;;;;11.90;9.10;;;;;;;12.52;52.62;99700.29;232833;1217;139302;-60
2022/04/28 03:05:16;;;;;;;14.80;9.10;;;;;;;12.46;52.92;99701.50;233092;1217;139861;-60
2022/04/28 03:15:41;;;;;;;14.90;9.20;;;;;;;12.42;52.77;99707.43;232654;1219;139926;-64
2022/04/28 03:20:44;;;;;;;15.20;9.60;;;;;;;12.41;52.97;99712.34;233359;1219;139443;-63
2022/04/28 03:25:51;;;;;;;13.00;8.90;;;;;;;12.40;52.86;99717.20;232800;1217;139433;-61
2022/04/28 03:30:55;;;;;;;14.40;8.80;;;;;;;12.39;52.91;99714.05;233124;1217;139603;-60
2022/04/28 03:36:00;;;;;;;16.30;8.80;;;;;;;12.38;52.90;99721.56;232888;1217;139021;-59
2022/04/28 03:41:03;;;;;;;14.00;8.90;;;;;;;12.37;52.85;99722.35;233259;1217;139651;-60
2022/04/28 03:46:06;;;;;;;20.60;9.20;;;;;;;12.40;52.82;99719.51;232858;1217;140236;-60
2022/04/28 03:51:10;;;;;;;53.70;47.90;;;;;;;12.38;53.05;99720.83;232558;1218;139136;-60
2022/04/28 03:56:14;;;;;;;21.00;10.80;;;;;;;12.38;53.04;99724.55;233201;1217;139873;-60
2022/04/28 04:01:17;;;;;;;16.20;9.30;;;;;;;12.40;53.04;99729.64;233346;1217;139587;-59
2022/04/28 04:06:43;;;;;;;20.70;9.70;;;;;;;12.40;53.15;99735.88;233114;1217;138844;-60
2022/04/28 04:12:02;;;;;;;17.20;9.80;;;;;;;12.35;52.81;99741.36;233055;1217;138809;-64
2022/04/28 04:17:19;;;;;;;151.40;116.30;;;;;;;12.34;53.32;99754.16;232437;1217;139397;-64
2022/04/28 04:22:22;;;;;;;17.70;11.60;;;;;;;12.35;53.27;99756.13;233369;1217;139356;-63
2022/04/28 04:27:25;;;;;;;18.10;9.60;;;;;;;12.37;53.52;99757.77;233410;1217;140002;-63
2022/04/28 04:32:44;;;;;;;15.00;9.20;;;;;;;12.40;53.21;99763.97;233093;1219;139370;-62
2022/04/28 04:37:59;;;;;;;16.10;8.90;;;;;;;12.47;53.11;99765.34;233272;1217;139159;-63
2022/04/28 04:43:06;;;;;;;15.00;9.30;;;;;;;12.52;53.06;99768.09;233251;1217;138790;-63
2022/04/28 04:48:12;;;;;;;14.20;8.10;;;;;;;12.60;52.94;99770.84;232265;1217;139449;-62
2022/04/28 04:53:26;;;;;;;12.50;8.80;;;;;;;12.70;52.59;99774.69;233299;1217;138930;-62
2022/04/28 04:58:29;;;;;;;13.80;8.60;;;;;;;12.80;52.46;99768.20;233384;1216;138525;-63
2022/04/28 05:03:33;;;;;;;14.90;8.60;;;;;;;12.88;52.30;99766.29;233400;1216;139182;-63
2022/04/28 05:09:00;;;;;;;12.20;8.60;;;;;;;13.03;52.34;99764.88;233627;1217;139262;-64
2022/04/28 05:14:04;;;;;;;14.50;9.10;;;;;;;13.17;52.13;99771.73;233232;1217;138716;-63
2022/04/28 05:19:07;;;;;;;15.70;9.10;;;;;;;13.28;52.26;99770.67;232286;1217;139511;-63
2022/04/28 05:24:40;;;;;;;15.20;9.00;;;;;;;13.50;52.02;99776.27;232234;1217;139579;-61
2022/04/28 05:30:02;;;;;;;16.60;10.10;;;;;;;13.64;51.87;99773.05;233477;1216;140821;-61
2022/04/28 05:35:14;;;;;;;14.60;8.40;;;;;;;13.83;51.70;99785.45;233280;1217;139559;-62
2022/04/28 05:40:17;;;;;;;14.30;8.60;;;;;;;13.93;51.56;99789.95;233491;1217;139272;-62
2022/04/28 05:50:43;;;;;;;14.90;9.10;;;;;;;14.04;51.06;99794.06;232301;1217;139167;-63
2022/04/28 05:55:46;;;;;;;15.10;10.00;;;;;;;14.14;51.06;99801.14;232401;1217;140488;-63
2022/04/28 06:00:49;;;;;;;16.40;8.50;;;;;;;14.23;50.78;99798.42;233287;1217;139288;-62
2022/04/28 06:05:53;;;;;;;14.10;9.00;;;;;;;14.28;50.82;99801.27;233082;1217;140259;-63
2022/04/28 06:10:57;;;;;;;13.90;8.60;;;;;;;14.34;50.81;99803.73;232604;1217;139334;-63
2022/04/28 06:16:01;;;;;;;16.30;9.20;;;;;;;14.41;50.72;99805.59;233212;1217;139034;-65
2022/04/28 06:21:13;;;;;;;18.90;8.90;;;;;;;14.48;50.70;99807.65;233081;1217;139148;-63
2022/04/28 06:26:19;;;;;;;16.40;8.40;;;;;;;14.53;50.30;99812.17;233199;1220;138511;-63
2022/04/28 06:31:22;;;;;;;13.20;8.20;;;;;;;14.58;50.21;99807.96;233343;1217;139891;-63
2022/04/28 06:36:25;;;;;;;14.20;8.60;;;;;;;14.70;50.27;99807.27;233174;1217;138683;-63
2022/04/28 06:41:29;;;;;;;18.40;8.40;;;;;;;14.85;50.16;99808.45;232569;1217;138271;-62
2022/04/28 06:46:36;;;;;;;13.60;8.20;;;;;;;14.93;50.07;99809.14;232575;1217;139593;-63
2022/04/28 06:51:59;;;;;;;18.70;8.40;;;;;;;15.04;50.06;99809.84;232044;1217;139214;-64
2022/04/28 06:57:34;;;;;;;11.60;7.30;;;;;;;15.14;49.71;99806.83;233211;1217;139035;-63
2022/04/28 07:02:46;;;;;;;9.60;7.30;;;;;;;15.32;49.55;99807.02;233207;1219;139992;-63
2022/04/28 07:07:50;;;;;;;9.70;6.90;;;;;;;15.47;49.42;99810.63;231738;1217;138437;-62
2022/04/28 07:12:58;;;;;;;9.90;6.60;;;;;;;15.57;49.19;99811.53;232530;1217;138741;-64
2022/04/28 07:18:20;;;;;;;10.90;6.80;;;;;;;15.71;49.04;99812.92;232883;1217;139698;-63
2022/04/28 07:23:23;;;;;;;9.20;6.40;;;;;;;15.85;48.87;99814.04;232558;1217;138805;-63
2022/04/28 07:28:26;;;;;;;10.80;6.10;;;;;;;15.95;48.68;99814.98;232654;1217;138622;-63
2022/04/28 07:33:35;;;;;;;7.00;4.60;;;;;;;16.05;48.47;99821.17;232818;1217;139213;-63
2022/04/28 07:39:01;;;;;;;8.70;5.50;;;;;;;16.12;48.00;99820.36;233526;1216;138470;-65
2022/04/28 07:44:15;;;;;;;8.60;5.20;;;;;;;16.25;47.82;99823.66;232536;1217;139109;-62
2022/04/28 07:49:18;;;;;;;7.10;4.90;;;;;;;16.36;47.32;99822.35;231972;1217;139443;-63
2022/04/28 07:54:21;;;;;;;10.80;5.60;;;;;;;16.47;47.10;99825.32;231916;1217;138937;-63
2022/04/28 07:59:24;;;;;;;6.90;5.70;;;;;;;16.62;47.03;99832.79;232388;1217;139172;-63
2022/04/28 08:04:48;;;;;;;7.70;4.60;;;;;;;16.78;47.20;99832.55;233051;1217;140267;-63
2022/04/28 08:09:52;;;;;;;8.20;4.50;;;;;;;16.87;46.76;99827.86;233450;1217;138576;-63
2022/04/28 08:14:57;;;;;;;8.50;5.10;;;;;;;16.97;46.43;99835.77;232739;1217;138151;-63
2022/04/28 08:20:00;;;;;;;9.70;5.40;;;;;;;16.97;45.84;99836.46;233426;1217;139532;-64
2022/04/28 08:25:04;;;;;;;9.30;5.30;;;;;;;17.05;45.71;99835.68;232760;1217;141534;-63
2022/04/28 08:30:08;;;;;;;6.50;4.70;;;;;;;17.17;45.71;99830.41;233235;1216;138369;-62
2022/04/28 08:35:11;;;;;;;9.50;6.60;;;;;;;17.23;45.55;99833.54;232498;1217;139506;-62
2022/04/28 08:40:14;;;;;;;6.60;4.60;;;;;;;17.34;45.33;99828.05;232566;1217;138130;-62
2022/04/28 08:45:21;;;;;;;87.60;65.20;;;;;;;17.56;45.20;99831.95;232715;1217;139825;-61
2022/04/28 08:50:43;;;;;;;8.50;5.20;;;;;;;17.68;45.16;99828.28;232533;1217;139662;-62
2022/04/28 08:55:48;;;;;;;6.30;4.40;;;;;;;17.76;44.71;99828.57;232735;1217;139340;-63
2022/04/28 09:00:52;;;;;;;6.80;4.40;;;;;;;17.95;44.49;99824.38;232366;1217;138374;-64
2022/04/28 09:06:18;;;;;;;4.30;3.30;;;;;;;18.23;44.25;99825.15;233220;1215;138131;-65
2022/04/28 09:11:42;;;;;;;5.70;3.70;;;;;;;18.40;43.65;99824.27;232857;1217;141272;-63
2022/04/28 09:17:04;;;;;;;5.70;3.90;;;;;;;18.59;43.37;99817.14;232903;1217;139124;-64
2022/04/28 09:22:12;;;;;;;8.20;4.40;;;;;;;18.77;43.25;99816.05;232345;1217;139957;-63
2022/04/28 09:27:16;;;;;;;187.50;151.90;;;;;;;18.80;42.79;99821.97;233083;1217;138948;-63
2022/04/28 09:32:21;;;;;;;8.40;5.20;;;;;;;18.89;42.70;99820.67;233112;1217;139527;-61
2022/04/28 09:38:07;;;;;;;5.90;3.30;;;;;;;19.06;42.07;99822.23;232841;1217;138606;-61
2022/04/28 09:43:32;;;;;;;6.40;3.40;;;;;;;19.01;41.33;99823.92;233667;1215;139334;-62
2022/04/28 09:48:36;;;;;;;4.50;3.60;;;;;;;19.03;41.36;99821.80;233231;1218;139028;-57
2022/04/28 09:53:44;;;;;;;4.50;3.50;;;;;;;19.13;40.89;99821.26;233014;1217;138878;-63
2022/04/28 09:58:51;;;;;;;8.40;3.90;;;;;;;19.07;40.70;99823.80;232863;1217;138429;-63
2022/04/28 10:03:57;;;;;;;6.40;3.60;;;;;;;19.06;40.92;99820.25;233223;1217;139118;-64
2022/04/28 10:09:12;;;;;;;7.00;3.60;;;;;;;19.19;40.99;99822.55;233075;1217;138812;-62
2022/04/28 10:14:22;;;;;;;8.00;3.60;;;;;;;19.08;40.65;99829.83;232499;1217;138944;-61
2022/04/28 10:19:34;;;;;;;6.70;3.80;;;;;;;19.00;40.71;99828.12;233426;1217;138960;-62
2022/04/28 10:35:48;;;;;;;6.20;3.60;;;;;;;19.36;39.49;99816.81;233420;1217;138823;-61
2022/04/28 10:41:08;;;;;;;5.10;3.10;;;;;;;19.27;39.19;99813.98;233610;1216;139456;-61
2022/04/28 10:46:11;;;;;;;7.80;3.20;;;;;;;19.24;39.28;99816.20;233418;1217;138805;-62
2022/04/28 10:51:20;;;;;;;4.20;2.90;;;;;;;19.22;39.31;99814.79;233380;1217;138683;-61
2022/04/28 10:56:54;;;;;;;4.60;3.30;;;;;;;19.61;39.66;99810.35;232958;1217;139335;-61
2022/04/28 11:02:21;;;;;;;4.70;3.50;;;;;;;20.01;38.96;99807.20;232975;1217;139131;-62
2022/04/28 11:07:28;;;;;;;6.70;3.50;;;;;;;20.03;38.52;99810.80;233447;1217;139394;-61
2022/04/28 11:12:37;;;;;;;5.40;3.30;;;;;;;20.30;38.76;99810.02;232483;1217;140337;-63
2022/04/28 11:17:43;;;;;;;6.30;3.10;;;;;;;20.62;38.30;99807.35;233168;1217;138909;-61
2022/04/28 11:22:50;;;;;;;6.90;3.10;;;;;;;20.80;37.84;99799.17;233131;1217;138935;-63
2022/04/28 11:27:56;;;;;;;4.00;2.70;;;;;;;20.73;37.55;99805.14;232991;1217;141963;-62
2022/04/28 11:33:00;;;;;;;3.10;2.20;;;;;;;20.88;37.75;99800.92;232705;1217;138467;-61
2022/04/28 11:38:03;;;;;;;4.60;2.30;;;;;;;21.22;37.53;99802.40;232794;1217;138471;-62
2022/04/28 11:43:06;;;;;;;5.10;2.50;;;;;;;21.45;36.81;99799.88;233303;1217;139387;-61
2022/04/28 11:48:10;;;;;;;12.20;3.00;;;;;;;21.54;36.46;99799.95;233265;1217;138610;-62
2022/04/28 11:53:13;;;;;;;3.40;2.50;;;;;;;21.50;36.02;99794.59;232787;1217;138701;-62
2022/04/28 11:58:16;;;;;;;4.00;2.60;;;;;;;21.72;36.59;99792.70;231918;1217;138770;-62
2022/04/28 12:03:27;;;;;;;4.00;2.20;;;;;;;22.02;36.47;99783.77;233463;1216;139060;-61
2022/04/28 12:08:30;;;;;;;4.50;2.50;;;;;;;22.36;36.23;99789.67;232917;1217;138685;-62
2022/04/28 12:19:20;;;;;;;3.40;2.00;;;;;;;22.76;35.59;99789.41;232659;1217;139305;-62
2022/04/28 12:24:26;;;;;;;4.70;2.20;;;;;;;22.90;35.39;99782.75;232247;1217;138553;-61
2022/04/28 12:29:29;;;;;;;2.80;2.20;;;;;;;23.10;35.05;99781.86;233178;1217;139557;-62
2022/04/28 12:34:32;;;;;;;6.70;2.40;;;;;;;23.23;34.97;99773.98;233027;1217;138736;-62
2022/04/28 12:39:57;;;;;;;5.00;2.50;;;;;;;23.27;34.33;99773.60;232247;1217;138068;-62
2022/04/28 12:45:03;;;;;;;4.50;2.30;;;;;;;23.41;34.05;99768.91;233332;1216;140008;-65
2022/04/28 12:50:21;;;;;;;5.20;2.00;;;;;;;23.57;33.50;99767.95;232924;1217;140633;-63
2022/04/28 12:55:34;;;;;;;4.30;2.20;;;;;;;23.60;33.39;99764.52;233040;1217;138452;-61
2022/04/28 13:00:38;;;;;;;2.80;2.10;;;;;;;23.86;33.42;99761.30;232958;1217;138327;-61
2022/04/28 13:05:41;;;;;;;3.50;2.30;;;;;;;24.20;33.50;99756.70;232647;1217;138517;-61
2022/04/28 13:10:44;;;;;;;3.70;1.90;;;;;;;24.19;32.86;99755.36;232574;1217;138143;-60
2022/04/28 13:15:47;;;;;;;7.60;2.30;;;;;;;23.77;32.22;99756.05;232533;1217;138837;-61
2022/04/28 13:20:51;;;;;;;4.00;2.10;;;;;;;23.28;31.96;99755.41;233241;1217;139518;-61
2022/04/28 13:25:54;;;;;;;3.60;2.00;;;;;;;22.79;31.77;99752.91;233404;1217;139258;-62
2022/04/28 13:30:57;;;;;;;3.70;2.10;;;;;;;22.84;32.31;99752.06;232786;1217;139401;-60
2022/04/28 13:36:03;;;;;;;7.80;2.10;;;;;;;23.22;32.77;99746.17;233346;1217;139056;-61
2022/04/28 13:41:07;;;;;;;14.20;8.80;;;;;;;23.34;34.00;99748.63;233154;1217;139200;-61
2022/04/28 13:46:15;;;;;;;8.70;6.90;;;;;;;23.06;35.24;99751.11;233426;1217;139711;-60
2022/04/28 13:51:18;;;;;;;7.70;5.50;;;;;;;22.79;35.02;99757.85;233317;1217;138774;-60
2022/04/28 13:56:22;;;;;;;6.50;2.90;;;;;;;22.66;35.04;99755.58;233420;1217;138772;-60
2022/04/28 14:01:26;;;;;;;10.20;4.10;;;;;;;22.89;35.13;99753.35;233391;1217;138662;-60
2022/04/28 14:06:29;;;;;;;3.40;2.00;;;;;;;23.02;35.24;99748.30;233157;1217;139731;-60
2022/04/28 14:11:34;;;;;;;7.80;2.50;;;;;;;23.24;34.72;99750.36;232979;1217;138736;-64
2022/04/28 14:16:38;;;;;;;3.00;2.60;;;;;;;23.56;34.57;99749.88;232515;1217;139258;-60
2022/04/28 14:21:42;;;;;;;5.40;2.00;;;;;;;23.84;33.89;99744.31;232362;1217;139813;-59
2022/04/28 14:26:46;;;;;;;4.20;2.10;;;;;;;23.96;33.43;99746.85;233345;1217;138902;-60
2022/04/28 14:31:49;;;;;;;4.30;2.20;;;;;;;23.97;33.21;99745.23;232306;1217;138556;-61
2022/04/28 14:36:56;;;;;;;4.00;2.10;;;;;;;23.95;32.99;99747.80;233231;1217;138796;-60
2022/04/28 14:42:00;;;;;;;2.80;2.00;;;;;;;23.86;32.78;99747.36;232895;1217;139131;-60
2022/04/28 14:47:23;;;;;;;6.70;2.10;;;;;;;23.68;32.32;99741.77;232688;1217;139776;-61
2022/04/28 14:52:27;;;;;;;8.20;3.90;;;;;;;23.43;32.26;99741.30;232679;1217;138567;-61
2022/04/28 14:57:32;;;;;;;11.00;4.60;;;;;;;23.16;31.81;99734.69;232807;1217;138583;-60
2022/04/28 15:02:37;;;;;;;8.40;5.30;;;;;;;22.95;31.99;99737.91;232358;1217;139283;-61
2022/04/28 15:07:41;;;;;;;2.60;2.10;;;;;;;22.80;31.14;99740.34;232873;1217;138378;-61
2022/04/28 15:12:44;;;;;;;4.90;1.90;;;;;;;22.54;30.37;99740.84;232447;1217;138504;-61
2022/04/28 15:17:51;;;;;;;4.80;2.30;;;;;;;22.32;30.77;99740.17;231865;1217;138307;-59
2022/04/28 15:22:58;;;;;;;8.60;2.70;;;;;;;22.20;31.42;99745.27;231141;1217;139108;-59
2022/04/28 15:28:01;;;;;;;5.70;2.50;;;;;;;22.01;31.75;99745.02;232434;1219;138453;-61
2022/04/28 15:33:06;;;;;;;104.50;82.30;;;;;;;21.86;31.50;99750.80;231748;1217;138804;-61
2022/04/28 15:38:11;;;;;;;67.30;49.50;;;;;;;21.68;31.66;99755.07;231791;1217;138907;-59
2022/04/28 15:43:21;;;;;;;5.20;3.60;;;;;;;21.53;31.90;99760.14;231626;1217;138525;-62
2022/04/28 15:48:25;;;;;;;6.90;2.70;;;;;;;21.35;31.62;99760.27;232359;1217;138530;-62
2022/04/28 15:53:34;;;;;;;4.80;3.20;;;;;;;21.12;31.89;99767.30;232208;1217;139418;-64
2022/04/28 15:58:41;;;;;;;7.70;2.80;;;;;;;20.87;31.97;99769.23;232281;1219;138463;-61
2022/04/28 16:03:54;;;;;;;8.60;2.90;;;;;;;20.67;32.13;99769.33;231671;1217;139971;-61
2022/04/28 16:09:01;;;;;;;6.80;3.00;;;;;;;20.56;32.29;99772.88;232744;1217;138258;-59
2022/04/28 16:14:11;;;;;;;5.40;3.30;;;;;;;20.41;32.33;99775.65;231899;1217;139301;-60
2022/04/28 16:19:14;;;;;;;28.10;21.80;;;;;;;20.29;32.74;99780.37;232235;1217;138607;-60
2022/04/28 16:24:26;;;;;;;4.10;3.40;;;;;;;20.18;32.73;99782.62;232100;1219;139490;-60
2022/04/28 16:29:35;;;;;;;7.30;3.50;;;;;;;20.05;32.92;99780.69;231484;1219;139199;-60
2022/04/28 16:34:39;;;;;;;7.40;3.60;;;;;;;19.97;33.06;99783.98;231312;1217;140051;-60
2022/04/28 16:39:48;;;;;;;6.90;3.60;;;;;;;19.89;33.22;99790.23;233082;1217;138438;-61
2022/04/28 16:44:53;;;;;;;5.80;3.40;;;;;;;19.76;33.48;99791.96;232389;1217;138411;-61
2022/04/28 16:49:56;;;;;;;11.40;3.80;;;;;;;19.62;33.61;99791.02;233259;1217;139072;-61
2022/04/28 16:55:00;;;;;;;8.70;4.30;;;;;;;19.47;33.91;99794.23;232776;1217;139667;-61
2022/04/28 17:00:09;;;;;;;6.10;3.30;;;;;;;19.34;34.19;99794.50;233402;1217;138714;-62
2022/04/28 17:05:12;;;;;;;179.60;120.20;;;;;;;19.22;34.65;99801.63;232023;1217;139263;-58
2022/04/28 17:10:19;;;;;;;15.60;11.80;;;;;;;19.32;36.80;99804.42;231924;1218;141072;-61
2022/04/28 17:15:24;;;;;;;8.70;4.20;;;;;;;19.61;35.98;99804.95;231691;1217;138632;-60
2022/04/28 17:20:30;;;;;;;6.90;4.00;;;;;;;19.53;35.39;99808.86;232152;1217;138988;-60
2022/04/28 17:25:33;;;;;;;12.10;3.90;;;;;;;19.42;35.29;99813.42;231883;1217;139763;-60
2022/04/28 17:30:38;;;;;;;9.80;4.10;;;;;;;19.29;35.08;99818.11;231570;1217;139468;-62
2022/04/28 17:35:44;;;;;;;6.60;4.10;;;;;;;19.18;35.07;99822.46;231497;1217;138504;-61
2022/04/28 17:40:49;;;;;;;10.20;3.60;;;;;;;19.09;34.90;99830.05;231786;1217;138622;-60
2022/04/28 17:45:54;;;;;;;7.10;3.60;;;;;;;18.99;35.22;99833.30;231891;1217;139609;-59
2022/04/28 17:50:59;;;;;;;6.80;3.60;;;;;;;18.86;35.12;99835.58;231203;1217;138913;-59
2022/04/28 18:01:31;;;;;;;10.20;3.70;;;;;;;18.55;35.24;99850.39;232348;1217;139120;-58
2022/04/28 18:06:37;;;;;;;347.90;289.80;;;;;;;18.45;35.58;99858.76;231383;1217;138926;-57
2022/04/28 18:11:41;;;;;;;27.80;18.30;;;;;;;18.46;36.25;99865.17;232616;1217;139317;-60
2022/04/28 18:16:44;;;;;;;8.80;5.40;;;;;;;18.45;36.09;99874.73;231259;1217;139161;-60
2022/04/28 18:21:49;;;;;;;7.10;4.40;;;;;;;18.23;35.88;99881.95;231881;1217;139363;-61
2022/04/28 18:26:56;;;;;;;9.40;4.50;;;;;;;17.97;36.12;99894.77;231599;1217;138889;-61
2022/04/28 18:32:01;;;;;;;10.20;4.70;;;;;;;17.83;36.36;99901.40;232006;1217;138395;-61
2022/04/28 18:47:57;;;;;;;10.30;5.70;;;;;;;17.67;36.95;99918.80;231964;1217;138413;-60
2022/04/28 18:53:07;;;;;;;141.90;98.10;;;;;;;17.61;36.61;99923.02;232216;1215;139280;-59
2022/04/28 18:58:17;;;;;;;93.00;71.70;;;;;;;17.66;36.75;99930.73;232075;1217;139267;-59
2022/04/28 19:03:23;;;;;;;17.90;8.40;;;;;;;17.78;37.03;99929.80;230971;1217;139022;-59
2022/04/28 19:08:32;;;;;;;11.00;7.00;;;;;;;17.78;36.68;99936.84;231821;1220;138820;-59
2022/04/28 19:13:36;;;;;;;15.60;7.70;;;;;;;17.66;36.91;99941.30;231866;1219;138254;-60
2022/04/28 19:18:40;;;;;;;14.50;7.80;;;;;;;17.61;36.63;99938.81;231829;1217;141246;-60
2022/04/28 19:23:44;;;;;;;19.70;12.50;;;;;;;17.56;36.77;99938.50;231790;1217;138572;-60
2022/04/28 19:28:54;;;;;;;18.50;11.70;;;;;;;17.53;36.55;99941.95;231264;1216;138704;-60
2022/04/28 19:33:57;;;;;;;16.90;9.80;;;;;;;17.50;36.53;99946.30;231954;1217;138935;-60
2022/04/28 19:39:02;;;;;;;12.80;8.60;;;;;;;17.48;36.48;99946.45;231568;1216;140027;-61
2022/04/28 19:44:08;;;;;;;14.80;8.90;;;;;;;17.44;36.68;99951.95;231242;1217;138966;-62
2022/04/28 19:49:15;;;;;;;17.10;9.10;;;;;;;17.41;36.99;99957.20;231755;1217;138986;-61
2022/04/28 19:54:22;;;;;;;13.50;9.30;;;;;;;17.36;36.89;99957.73;231829;1217;138844;-61
2022/04/28 19:59:26;;;;;;;18.00;10.70;;;;;;;17.33;36.78;99961.61;231994;1217;139783;-60
2022/04/28 20:04:33;;;;;;;13.70;8.70;;;;;;;17.24;36.75;99963.31;232349;1217;138758;-62
2022/04/28 20:09:50;;;;;;;16.20;8.70;;;;;;;17.16;36.81;99960.34;230996;1217;138789;-61
2022/04/28 20:14:53;;;;;;;17.10;9.50;;;;;;;17.16;36.75;99961.43;231615;1218;138663;-57
2022/04/28 20:19:58;;;;;;;;;;;;;;;17.12;36.97;99964.80;231693;1217;138494;-61
2022/04/28 20:25:14;;;;;;;19.70;9.10;;;;;;;17.00;37.16;99962.23;231898;1217;125005;-61
2022/04/28 20:30:24;;;;;;;23.90;11.40;;;;;;;16.90;37.15;99967.10;231648;1217;139232;-60
2022/04/28 20:35:31;;;;;;;18.20;10.90;;;;;;;16.86;37.37;99967.41;232108;1218;139950;-62
2022/04/28 20:40:36;;;;;;;20.80;10.60;;;;;;;16.79;37.34;99972.41;231519;1217;139264;-63
2022/04/28 20:45:45;;;;;;;20.00;10.80;;;;;;;16.71;37.73;99974.17;231097;1217;138961;-64
2022/04/28 20:50:49;;;;;;;21.90;10.80;;;;;;;16.64;37.54;99976.48;231399;1217;139127;-64
2022/04/28 20:55:53;;;;;;;22.20;11.30;;;;;;;16.54;37.58;99984.77;232335;1217;139011;-64
2022/04/28 21:01:16;;;;;;;;;;;;;;;;;;;;;
2022/04/28 21:06:24;;;;;;;19.20;10.90;;;;;;;16.32;37.91;99989.92;231706;1217;139696;-64
2022/04/28 21:11:31;;;;;;;24.90;11.40;;;;;;;16.24;38.28;99995.09;231606;1217;139581;-64
2022/04/28 21:16:37;;;;;;;22.00;11.00;;;;;;;16.19;38.47;99994.05;231938;1217;138900;-64
2022/04/28 21:21:49;;;;;;;24.50;12.00;;;;;;;16.05;38.89;99994.30;231554;1218;139691;-63
2022/04/28 21:26:53;;;;;;;;;;;;;;;15.93;38.64;99994.79;232141;1217;139601;-62
2022/04/28 21:31:59;;;;;;;21.60;11.70;;;;;;;15.78;38.94;99998.27;231759;1217;125112;-64
2022/04/28 21:37:07;;;;;;;20.30;10.80;;;;;;;15.64;39.23;99999.77;231668;1217;138962;-64
2022/04/28 21:42:11;;;;;;;25.80;11.50;;;;;;;15.57;39.22;100000.78;231423;1217;138797;-61
2022/04/28 21:47:19;;;;;;;23.70;12.00;;;;;;;15.51;39.50;100001.69;231839;1215;139080;-62
2022/04/28 21:52:30;;;;;;;21.60;11.60;;;;;;;15.46;39.82;100002.23;232417;1217;139728;-62
2022/04/28 21:57:38;;;;;;;21.10;11.50;;;;;;;15.34;40.04;100000.18;231288;1217;138993;-61
2022/04/28 22:02:42;;;;;;;24.60;11.80;;;;;;;15.24;40.21;99999.94;232048;1217;140182;-62
2022/04/28 22:13:07;;;;;;;20.30;11.70;;;;;;;15.06;40.51;100006.48;233359;1217;140361;-62
2022/04/28 22:18:12;;;;;;;19.80;11.40;;;;;;;15.01;40.80;100004.69;233126;1217;139671;-61
2022/04/28 22:23:15;;;;;;;18.90;11.80;;;;;;;14.98;41.01;100008.08;233208;1217;138917;-63
2022/04/28 22:28:18;;;;;;;20.50;12.70;;;;;;;14.90;40.96;100012.67;233421;1217;139278;-63
2022/04/28 22:33:21;;;;;;;22.80;13.40;;;;;;;14.85;41.08;100014.23;233211;1217;139396;-63
2022/04/28 22:38:24;;;;;;;23.90;12.50;;;;;;;14.82;41.11;100012.14;233358;1217;139793;-58
2022/04/28 22:43:29;;;;;;;25.50;12.50;;;;;;;14.79;41.33;100021.94;233326;1216;138939;-58
2022/04/28 22:48:32;;;;;;;43.60;28.20;;;;;;;14.73;41.50;100013.94;233431;1216;140992;-57
2022/04/28 22:53:35;;;;;;;27.00;13.10;;;;;;;14.72;41.70;100007.77;233404;1217;139105;-58
2022/04/28 22:58:39;;;;;;;22.00;13.10;;;;;;;14.62;41.53;100010.70;233598;1217;139361;-60
2022/04/28 23:03:43;;;;;;;20.60;13.70;;;;;;;14.52;41.76;100013.83;233314;1217;139514;-60
2022/04/28 23:08:46;;;;;;;24.60;14.20;;;;;;;14.41;42.19;100012.71;233444;1217;138856;-59
2022/04/28 23:13:49;;;;;;;23.70;14.30;;;;;;;14.28;42.21;100009.80;233109;1217;139371;-58
2022/04/28 23:18:52;;;;;;;21.50;13.30;;;;;;;14.22;42.42;100007.87;233265;1217;139246;-60
2022/04/28 23:23:55;;;;;;;24.20;13.10;;;;;;;14.11;42.59;100016.33;233344;1216;139519;-60
2022/04/28 23:28:58;;;;;;;22.60;13.10;;;;;;;14.01;42.81;100016.41;233308;1217;141310;-59
2022/04/28 23:39:24;;;;;;;21.00;13.80;;;;;;;13.90;43.34;100027.61;233331;1216;139077;-59
2022/04/28 23:44:27;;;;;;;22.90;13.90;;;;;;;13.72;43.54;100024.06;232752;1217;139449;-59
2022/04/28 23:49:30;;;;;;;22.20;13.90;;;;;;;13.62;43.68;100025.02;233212;1217;139664;-58
2022/04/28 23:54:51;;;;;;;22.80;13.90;;;;;;;13.61;43.83;100020.20;232471;1216;140356;-61
2022/04/28 23:59:57;;;;;;;21.60;14.30;;;;;;;13.59;43.92;100017.53;233320;1217;138849;-60
